Time;durP1;ratioP1;P1;durP2;ratioP2;P2;SDS_P1;SDS_P2;PMS_P1;PMS_P2;Temp;Humidity;BMP_temperature;BMP_pressure;BME280_temperature;BME280_humidity;BME280_pressure;Samples;Min_cycle;Max_cycle;Signal;HPM_P1;HPM_P2
2022/10/15 00:01:26;;;;;;;;;;;12.30;99.90;;;;;;5101387;28;19925;-76
2022/10/15 00:03:51;;;;;;;;;;;12.30;99.90;;;;;;5069630;28;19925;-76
2022/10/15 00:06:18;;;;;;;;;;;12.40;99.90;;;;;;5067155;28;19962;-76
2022/10/15 00:08:44;;;;;;;;;;;12.40;99.90;;;;;;5085163;28;19933;-77
2022/10/15 00:11:11;;;;;;;;;;;12.40;99.90;;;;;;5052311;28;19993;-77
2022/10/15 00:13:37;;;;;;;;;;;12.40;99.90;;;;;;5080113;28;19929;-77
2022/10/15 00:16:05;;;;;;;;;;;12.40;99.90;;;;;;5103194;28;20089;-77
2022/10/15 00:18:31;;;;;;;;;;;12.40;99.90;;;;;;5054492;28;19925;-76
2022/10/15 00:20:56;;;;;;;;;;;12.40;99.90;;;;;;5087398;28;20284;-77
2022/10/15 00:23:22;;;;;;;;;;;12.50;99.90;;;;;;5071106;28;19924;-76
2022/10/15 00:25:47;;;;;;;;;;;12.50;99.90;;;;;;5104090;28;20080;-77
2022/10/15 00:28:13;;;;;;;;;;;12.50;99.90;;;;;;5071488;28;19928;-77
2022/10/15 00:30:38;;;;;;;;;;;12.50;99.90;;;;;;5074260;28;19930;-76
2022/10/15 00:33:04;;;;;;;;;;;12.50;99.90;;;;;;5089078;28;19928;-77
2022/10/15 00:35:30;;;;;;;;;;;12.50;99.90;;;;;;5059788;28;20403;-76
2022/10/15 00:37:55;;;;;;;;;;;12.60;99.90;;;;;;5071934;28;19932;-76
2022/10/15 00:40:21;;;;;;;;;;;12.60;99.90;;;;;;5054626;28;19982;-76
2022/10/15 00:42:47;;;;;;;;;;;12.60;99.90;;;;;;5061619;28;19928;-77
2022/10/15 00:45:13;;;;;;;;;;;12.60;99.90;;;;;;5075515;28;19997;-76
2022/10/15 00:47:44;;;;;;;;;;;12.60;99.90;;;;;;5060679;28;19925;-76
2022/10/15 00:50:10;;;;;;;;;;;12.50;99.90;;;;;;5089277;28;20296;-76
2022/10/15 00:52:59;;;;;;;;;;;12.50;99.90;;;;;;5107737;28;19924;-77
2022/10/15 00:55:27;;;;;;;;;;;12.60;99.90;;;;;;5050480;28;20333;-76
2022/10/15 00:57:54;;;;;;;;;;;12.60;99.90;;;;;;5041085;28;19929;-79
2022/10/15 01:00:20;;;;;;;;;;;12.60;99.90;;;;;;5103483;28;19985;-76
2022/10/15 01:02:46;;;;;;;;;;;12.60;99.90;;;;;;5069364;28;19925;-76
2022/10/15 01:05:13;;;;;;;;;;;12.60;99.90;;;;;;5073762;28;19924;-76
2022/10/15 01:07:39;;;;;;;;;;;12.70;99.90;;;;;;5074570;28;19931;-76
2022/10/15 01:10:05;;;;;;;;;;;12.70;99.90;;;;;;5065229;28;19924;-76
2022/10/15 01:12:31;;;;;;;;;;;12.70;99.90;;;;;;5070396;28;20453;-76
2022/10/15 01:14:59;;;;;;;;;;;12.70;99.90;;;;;;5104153;28;19975;-76
2022/10/15 01:17:39;;;;;;;;;;;12.70;99.90;;;;;;5058389;28;20405;-76
2022/10/15 01:20:17;;;;;;;;;;;12.60;99.90;;;;;;5054892;28;20289;-76
2022/10/15 01:22:42;;;;;;;;;;;12.60;99.90;;;;;;5086768;28;19963;-77
2022/10/15 01:25:08;;;;;;;;;;;12.60;99.90;;;;;;5070077;28;19971;-76
2022/10/15 01:27:36;;;;;;;;;;;12.60;99.90;;;;;;5053657;28;19925;-77
2022/10/15 01:30:15;;;;;;;;;;;12.50;99.90;;;;;;5055591;28;20076;-76
2022/10/15 01:32:48;;;;;;;;;;;12.50;99.90;;;;;;5071959;28;19925;-76
2022/10/15 01:35:25;;;;;;;;;;;12.50;99.90;;;;;;5073288;28;19978;-76
2022/10/15 01:38:10;;;;;;;;;;;12.50;99.90;;;;;;5086892;28;19972;-76
2022/10/15 01:40:42;;;;;;;;;;;12.50;99.90;;;;;;5055751;28;20287;-76
2022/10/15 01:43:10;;;;;;;;;;;12.50;99.90;;;;;;5093590;28;19979;-76
2022/10/15 01:45:39;;;;;;;;;;;12.50;99.90;;;;;;5103031;28;19925;-76
2022/10/15 01:48:07;;;;;;;;;;;12.50;99.90;;;;;;5106353;28;20010;-76
2022/10/15 01:50:34;;;;;;;;;;;12.50;99.90;;;;;;5073557;28;19924;-76
2022/10/15 01:53:01;;;;;;;;;;;12.50;99.90;;;;;;5070422;28;19975;-76
2022/10/15 01:55:28;;;;;;;;;;;12.50;99.90;;;;;;5070466;28;19928;-77
2022/10/15 01:57:55;;;;;;;;;;;12.50;99.90;;;;;;5072058;28;20270;-76
2022/10/15 02:00:21;;;;;;;;;;;12.50;99.90;;;;;;5072232;28;19925;-76
2022/10/15 02:02:46;;;;;;;;;;;12.60;99.90;;;;;;5068105;28;19969;-79
2022/10/15 02:05:34;;;;;;;;;;;12.60;99.90;;;;;;5072068;28;19930;-76
2022/10/15 02:08:18;;;;;;;;;;;12.60;99.90;;;;;;5076937;28;19925;-78
2022/10/15 02:10:47;;;;;;;;;;;12.60;99.90;;;;;;5104045;28;19924;-76
2022/10/15 02:13:24;;;;;;;;;;;12.60;99.90;;;;;;5091850;28;20739;-76
2022/10/15 02:16:11;;;;;;;;;;;12.60;99.90;;;;;;5067242;28;20023;-76
2022/10/15 02:18:40;;;;;;;;;;;12.70;99.90;;;;;;5054424;28;19967;-77
2022/10/15 02:21:24;;;;;;;;;;;12.70;99.90;;;;;;5066815;28;19925;-76
2022/10/15 02:23:56;;;;;;;;;;;12.70;99.90;;;;;;5067074;28;19928;-76
2022/10/15 02:26:24;;;;;;;;;;;12.70;99.90;;;;;;5066157;28;19986;-76
2022/10/15 02:28:53;;;;;;;;;;;12.70;99.90;;;;;;5063927;28;20388;-76
2022/10/15 02:31:19;;;;;;;;;;;12.70;99.90;;;;;;5069917;28;19928;-77
2022/10/15 02:33:45;;;;;;;;;;;12.70;99.90;;;;;;5094552;28;19931;-76
2022/10/15 02:36:11;;;;;;;;;;;12.70;99.90;;;;;;5070252;28;20291;-76
2022/10/15 02:38:39;;;;;;;;;;;12.60;99.90;;;;;;5054561;28;19928;-76
2022/10/15 02:41:05;;;;;;;;;;;12.70;99.90;;;;;;5071145;28;20015;-76
2022/10/15 02:43:31;;;;;;;;;;;12.70;99.90;;;;;;5072230;28;19932;-76
2022/10/15 02:45:57;;;;;;;;;;;12.70;99.90;;;;;;5103278;28;19973;-77
2022/10/15 02:48:22;;;;;;;;;;;12.70;99.90;;;;;;5063381;28;19928;-76
2022/10/15 02:50:48;;;;;;;;;;;12.70;99.90;;;;;;5071646;28;19929;-77
2022/10/15 02:53:13;;;;;;;;;;;12.70;99.90;;;;;;5070086;28;19924;-76
2022/10/15 02:55:39;;;;;;;;;;;12.70;99.90;;;;;;5102374;28;19973;-76
2022/10/15 02:58:05;;;;;;;;;;;12.70;99.90;;;;;;5105600;28;19931;-77
2022/10/15 03:00:30;;;;;;;;;;;12.70;99.90;;;;;;5083472;28;20383;-76
2022/10/15 03:02:56;;;;;;;;;;;12.70;99.90;;;;;;5087795;28;19924;-75
2022/10/15 03:05:21;;;;;;;;;;;12.70;99.90;;;;;;5067501;28;19924;-76
2022/10/15 03:07:47;;;;;;;;;;;12.70;99.90;;;;;;5052679;28;20031;-76
2022/10/15 03:10:12;;;;;;;;;;;12.70;99.90;;;;;;5067613;28;20380;-76
2022/10/15 03:12:38;;;;;;;;;;;12.70;99.90;;;;;;5071353;28;19936;-77
2022/10/15 03:15:04;;;;;;;;;;;12.70;99.90;;;;;;5064073;28;19932;-76
2022/10/15 03:17:29;;;;;;;;;;;12.80;99.90;;;;;;5057266;28;19931;-76
2022/10/15 03:19:55;;;;;;;;;;;12.80;99.90;;;;;;5095536;28;19931;-76
2022/10/15 03:22:20;;;;;;;;;;;12.80;99.90;;;;;;5069787;28;19928;-77
2022/10/15 03:24:46;;;;;;;;;;;12.80;99.90;;;;;;5076515;28;19930;-76
2022/10/15 03:27:12;;;;;;;;;;;12.80;99.90;;;;;;5067675;28;19924;-76
2022/10/15 03:29:37;;;;;;;;;;;12.80;99.90;;;;;;5072088;28;19939;-76
2022/10/15 03:32:03;;;;;;;;;;;12.80;99.90;;;;;;5070730;28;19932;-76
2022/10/15 03:34:29;;;;;;;;;;;12.80;99.90;;;;;;5072875;28;19924;-76
2022/10/15 03:36:54;;;;;;;;;;;12.80;99.90;;;;;;5072644;28;19925;-76
2022/10/15 03:39:20;;;;;;;;;;;12.80;99.90;;;;;;5072858;28;20257;-76
2022/10/15 03:41:45;;;;;;;;;;;12.80;99.90;;;;;;5091306;28;19924;-79
2022/10/15 03:44:11;;;;;;;;;;;12.80;99.90;;;;;;5102468;28;19935;-76
2022/10/15 03:46:36;;;;;;;;;;;12.80;99.90;;;;;;5074302;28;19942;-77
2022/10/15 03:49:02;;;;;;;;;;;12.80;99.90;;;;;;5063190;28;19924;-76
2022/10/15 03:51:27;;;;;;;;;;;12.80;99.90;;;;;;5057856;28;19932;-76
2022/10/15 03:53:53;;;;;;;;;;;12.80;99.90;;;;;;5089811;28;19932;-77
2022/10/15 03:56:20;;;;;;;;;;;12.70;99.90;;;;;;5073463;28;19952;-77
2022/10/15 03:58:45;;;;;;;;;;;12.70;99.90;;;;;;5100857;28;19981;-76
2022/10/15 04:01:12;;;;;;;;;;;12.70;99.90;;;;;;5103313;28;19927;-77
2022/10/15 04:03:38;;;;;;;;;;;12.70;99.90;;;;;;5072708;28;20019;-77
2022/10/15 04:06:04;;;;;;;;;;;12.70;99.90;;;;;;5089431;28;20003;-76
2022/10/15 04:08:30;;;;;;;;;;;12.60;99.90;;;;;;5091285;28;19990;-76
2022/10/15 04:10:55;;;;;;;;;;;12.70;99.90;;;;;;5059195;28;19924;-76
2022/10/15 04:13:21;;;;;;;;;;;12.70;99.90;;;;;;5104431;28;19971;-76
2022/10/15 04:15:46;;;;;;;;;;;12.60;99.90;;;;;;5081198;28;19931;-78
2022/10/15 04:18:12;;;;;;;;;;;12.60;99.90;;;;;;5077824;28;19928;-78
2022/10/15 04:20:38;;;;;;;;;;;12.60;99.90;;;;;;5076228;28;20028;-78
2022/10/15 04:23:03;;;;;;;;;;;12.60;99.90;;;;;;5103745;28;19974;-77
2022/10/15 04:25:29;;;;;;;;;;;12.60;99.90;;;;;;5065363;28;19925;-76
2022/10/15 04:27:55;;;;;;;;;;;12.50;99.90;;;;;;5054802;28;19924;-76
2022/10/15 04:30:20;;;;;;;;;;;12.60;99.90;;;;;;5099951;28;19970;-77
2022/10/15 04:32:46;;;;;;;;;;;12.60;99.90;;;;;;5057798;28;19924;-76
2022/10/15 04:35:11;;;;;;;;;;;12.50;99.90;;;;;;5048233;28;19924;-76
2022/10/15 04:37:37;;;;;;;;;;;12.60;99.90;;;;;;5057129;28;19934;-76
2022/10/15 04:40:03;;;;;;;;;;;12.60;99.90;;;;;;5071090;28;20283;-76
2022/10/15 04:42:29;;;;;;;;;;;12.60;99.90;;;;;;5042411;28;19925;-76
2022/10/15 04:44:55;;;;;;;;;;;12.60;99.90;;;;;;5059877;28;19925;-76
2022/10/15 04:47:21;;;;;;;;;;;12.60;99.90;;;;;;5075540;28;19931;-76
2022/10/15 04:49:46;;;;;;;;;;;12.60;99.90;;;;;;5056389;28;19975;-77
2022/10/15 04:52:12;;;;;;;;;;;12.60;99.90;;;;;;5066489;28;19979;-76
2022/10/15 04:54:38;;;;;;;;;;;12.50;99.90;;;;;;5067926;28;20018;-78
2022/10/15 04:57:03;;;;;;;;;;;12.50;99.90;;;;;;5061638;28;19929;-76
2022/10/15 04:59:29;;;;;;;;;;;12.50;99.90;;;;;;5068509;28;20024;-76
2022/10/15 05:01:54;;;;;;;;;;;12.50;99.90;;;;;;5055670;28;19967;-76
2022/10/15 05:04:20;;;;;;;;;;;12.40;99.90;;;;;;5071662;28;19929;-76
2022/10/15 05:06:46;;;;;;;;;;;12.40;99.90;;;;;;5095309;28;20028;-76
2022/10/15 05:09:11;;;;;;;;;;;12.40;99.90;;;;;;5088957;28;19931;-76
2022/10/15 05:11:37;;;;;;;;;;;12.30;99.90;;;;;;5107239;28;19935;-78
2022/10/15 05:14:03;;;;;;;;;;;12.30;99.90;;;;;;5043359;28;19967;-78
2022/10/15 05:16:29;;;;;;;;;;;12.30;99.90;;;;;;5082011;28;19931;-77
2022/10/15 05:18:56;;;;;;;;;;;12.30;99.90;;;;;;5100728;28;19924;-76
2022/10/15 05:21:21;;;;;;;;;;;12.30;99.90;;;;;;5072089;28;19925;-76
2022/10/15 05:23:48;;;;;;;;;;;12.30;99.90;;;;;;5074004;28;20403;-76
2022/10/15 05:26:19;;;;;;;;;;;12.30;99.90;;;;;;5069876;28;19924;-76
2022/10/15 05:28:44;;;;;;;;;;;12.30;99.90;;;;;;5072285;28;19925;-76
2022/10/15 05:31:14;;;;;;;;;;;12.30;99.90;;;;;;5065345;28;20059;-76
2022/10/15 05:33:40;;;;;;;;;;;12.30;99.90;;;;;;5067685;28;19925;-76
2022/10/15 05:36:15;;;;;;;;;;;12.30;99.90;;;;;;5070378;28;20430;-76
2022/10/15 05:38:42;;;;;;;;;;;12.40;99.90;;;;;;5068447;28;19924;-76
2022/10/15 05:41:07;;;;;;;;;;;12.40;99.90;;;;;;5074243;28;20381;-77
2022/10/15 05:43:33;;;;;;;;;;;12.40;99.90;;;;;;5072170;28;19935;-76
2022/10/15 05:45:59;;;;;;;;;;;12.40;99.90;;;;;;5107078;28;20331;-76
2022/10/15 05:48:24;;;;;;;;;;;12.50;99.90;;;;;;5089775;28;20014;-76
2022/10/15 05:50:50;;;;;;;;;;;12.50;99.90;;;;;;5073255;28;19928;-76
2022/10/15 05:53:15;;;;;;;;;;;12.50;99.90;;;;;;5072087;28;19928;-77
2022/10/15 05:55:41;;;;;;;;;;;12.60;99.90;;;;;;5060874;28;19986;-78
2022/10/15 05:58:06;;;;;;;;;;;12.60;99.90;;;;;;5063639;28;19925;-77
2022/10/15 06:00:34;;;;;;;;;;;12.60;99.90;;;;;;5072087;28;19931;-76
2022/10/15 06:02:59;;;;;;;;;;;12.60;99.90;;;;;;5058764;28;19978;-76
2022/10/15 06:05:25;;;;;;;;;;;12.60;99.90;;;;;;5070715;28;19924;-76
2022/10/15 06:07:51;;;;;;;;;;;12.60;99.90;;;;;;5068551;28;20403;-77
2022/10/15 06:10:16;;;;;;;;;;;12.60;99.90;;;;;;5102096;28;19929;-76
2022/10/15 06:12:43;;;;;;;;;;;12.60;99.90;;;;;;5066244;28;20806;-78
2022/10/15 06:15:09;;;;;;;;;;;12.60;99.90;;;;;;5071247;28;20031;-76
2022/10/15 06:17:34;;;;;;;;;;;12.70;99.90;;;;;;5081605;28;20416;-76
2022/10/15 06:20:00;;;;;;;;;;;12.60;99.90;;;;;;5062720;28;19928;-76
2022/10/15 06:22:28;;;;;;;;;;;12.60;99.90;;;;;;5070434;28;19962;-76
2022/10/15 06:24:55;;;;;;;;;;;12.60;99.90;;;;;;5067351;28;20057;-77
2022/10/15 06:27:20;;;;;;;;;;;12.60;99.90;;;;;;5072089;28;19924;-75
2022/10/15 06:29:46;;;;;;;;;;;12.60;99.90;;;;;;5067834;28;19932;-74
2022/10/15 06:32:12;;;;;;;;;;;12.60;99.90;;;;;;5073285;28;19924;-75
2022/10/15 06:34:37;;;;;;;;;;;12.60;99.90;;;;;;5101341;28;19982;-75
2022/10/15 06:37:03;;;;;;;;;;;12.60;99.90;;;;;;5073552;28;19929;-75
2022/10/15 06:39:28;;;;;;;;;;;12.70;99.90;;;;;;5058893;28;19968;-75
2022/10/15 06:41:54;;;;;;;;;;;12.70;99.90;;;;;;5084192;28;19932;-72
2022/10/15 06:44:20;;;;;;;;;;;12.70;99.90;;;;;;5089857;28;20002;-71
2022/10/15 06:46:45;;;;;;;;;;;12.70;99.90;;;;;;5072296;28;20444;-72
2022/10/15 06:49:11;;;;;;;;;;;12.70;99.90;;;;;;5098383;28;20288;-76
2022/10/15 06:51:37;;;;;;;;;;;12.70;99.90;;;;;;5044547;28;19931;-77
2022/10/15 06:54:03;;;;;;;;;;;12.80;99.90;;;;;;5071640;28;19977;-75
2022/10/15 06:56:28;;;;;;;;;;;12.80;99.90;;;;;;5072197;28;19936;-76
2022/10/15 06:58:54;;;;;;;;;;;12.80;99.90;;;;;;5058575;28;19925;-76
2022/10/15 07:01:19;;;;;;;;;;;12.80;99.90;;;;;;5100949;28;20257;-77
2022/10/15 07:03:48;;;;;;;;;;;12.80;99.90;;;;;;5062974;28;19930;-78
2022/10/15 07:06:13;;;;;;;;;;;12.80;99.90;;;;;;5069736;28;20284;-77
2022/10/15 07:08:39;;;;;;;;;;;12.90;99.90;;;;;;5101541;28;19929;-76
2022/10/15 07:11:05;;;;;;;;;;;12.80;99.90;;;;;;5054895;28;19924;-76
2022/10/15 07:13:31;;;;;;;;;;;12.90;99.90;;;;;;5071017;28;19925;-77
2022/10/15 07:15:57;;;;;;;;;;;12.90;99.90;;;;;;5071849;28;19931;-77
2022/10/15 07:18:22;;;;;;;;;;;12.90;99.90;;;;;;5104373;28;20198;-76
2022/10/15 07:20:48;;;;;;;;;;;12.90;99.90;;;;;;5053722;28;19979;-77
2022/10/15 07:23:13;;;;;;;;;;;12.90;99.90;;;;;;5053769;28;20336;-78
2022/10/15 07:25:39;;;;;;;;;;;12.90;99.90;;;;;;5084313;28;19925;-77
2022/10/15 07:28:05;;;;;;;;;;;12.90;99.90;;;;;;5064825;28;19924;-76
2022/10/15 07:30:31;;;;;;;;;;;12.90;99.90;;;;;;5072335;28;19925;-80
2022/10/15 07:32:57;;;;;;;;;;;12.90;99.90;;;;;;5054110;28;19946;-77
2022/10/15 07:35:23;;;;;;;;;;;12.90;99.90;;;;;;5058331;28;19978;-78
2022/10/15 07:37:49;;;;;;;;;;;13.00;99.90;;;;;;5073796;28;19967;-80
2022/10/15 07:40:16;;;;;;;;;;;13.00;99.90;;;;;;5077213;28;20023;-78
2022/10/15 07:42:41;;;;;;;;;;;13.00;99.90;;;;;;5073063;28;20341;-79
2022/10/15 07:45:07;;;;;;;;;;;13.00;99.90;;;;;;5071718;28;20008;-76
2022/10/15 07:47:33;;;;;;;;;;;13.00;99.90;;;;;;5068769;28;19936;-80
2022/10/15 07:49:58;;;;;;;;;;;13.10;99.90;;;;;;5069407;28;19977;-77
2022/10/15 07:52:24;;;;;;;;;;;13.10;99.90;;;;;;5071278;28;20372;-80
2022/10/15 07:54:49;;;;;;;;;;;13.10;99.90;;;;;;5052783;28;19932;-78
2022/10/15 07:57:15;;;;;;;;;;;13.10;99.90;;;;;;5057809;28;19924;-77
2022/10/15 07:59:41;;;;;;;;;;;13.10;99.90;;;;;;5056901;28;19932;-76
2022/10/15 08:02:10;;;;;;;;;;;13.20;99.90;;;;;;5093353;28;19929;-77
2022/10/15 08:04:36;;;;;;;;;;;13.20;99.90;;;;;;5051461;28;19931;-76
2022/10/15 08:07:02;;;;;;;;;;;13.20;99.90;;;;;;5051274;28;20434;-76
2022/10/15 08:09:27;;;;;;;;;;;13.20;99.90;;;;;;5067845;28;19933;-78
2022/10/15 08:11:53;;;;;;;;;;;13.20;99.90;;;;;;5051682;28;19929;-76
2022/10/15 08:14:18;;;;;;;;;;;13.20;99.90;;;;;;5050908;28;20419;-77
2022/10/15 08:16:44;;;;;;;;;;;13.30;99.90;;;;;;5067714;28;20264;-76
2022/10/15 08:19:09;;;;;;;;;;;13.30;99.90;;;;;;5050717;28;19974;-76
2022/10/15 08:21:35;;;;;;;;;;;13.30;99.90;;;;;;5067940;28;19925;-77
2022/10/15 08:24:00;;;;;;;;;;;13.30;99.90;;;;;;5066843;28;20288;-74
2022/10/15 08:26:26;;;;;;;;;;;13.20;99.90;;;;;;5050184;28;19925;-73
2022/10/15 08:28:52;;;;;;;;;;;13.30;99.90;;;;;;5034288;28;19925;-74
2022/10/15 08:31:18;;;;;;;;;;;13.30;99.90;;;;;;5067811;28;19933;-74
2022/10/15 08:33:44;;;;;;;;;;;13.30;99.90;;;;;;5050003;28;19936;-75
2022/10/15 08:36:10;;;;;;;;;;;13.40;99.90;;;;;;5050934;28;20050;-74
2022/10/15 08:38:36;;;;;;;;;;;13.30;99.90;;;;;;5067720;28;19946;-74
2022/10/15 08:41:04;;;;;;;;;;;13.30;99.90;;;;;;5050324;28;19925;-75
2022/10/15 08:43:37;;;;;;;;;;;13.20;99.90;;;;;;5084156;28;20019;-75
2022/10/15 08:46:09;;;;;;;;;;;13.20;99.90;;;;;;5083716;28;19932;-75
2022/10/15 08:48:38;;;;;;;;;;;13.20;99.90;;;;;;5085851;28;19932;-75
2022/10/15 08:51:07;;;;;;;;;;;13.30;99.90;;;;;;5088087;28;19948;-75
2022/10/15 08:53:37;;;;;;;;;;;13.30;99.90;;;;;;5071266;28;19947;-74
2022/10/15 08:56:04;;;;;;;;;;;13.40;99.90;;;;;;5087302;28;19968;-75
2022/10/15 08:58:39;;;;;;;;;;;13.40;99.90;;;;;;5070863;28;19931;-75
2022/10/15 09:01:25;;;;;;;;;;;13.40;99.90;;;;;;5054121;28;19924;-74
2022/10/15 09:03:54;;;;;;;;;;;13.40;99.90;;;;;;5085829;28;20442;-75
2022/10/15 09:06:23;;;;;;;;;;;13.50;99.90;;;;;;5087606;28;19924;-75
2022/10/15 09:08:52;;;;;;;;;;;13.50;99.90;;;;;;5087243;28;20407;-75
2022/10/15 09:11:33;;;;;;;;;;;13.60;99.90;;;;;;5054386;28;20343;-76
2022/10/15 09:13:59;;;;;;;;;;;13.60;99.90;;;;;;5087124;28;19964;-75
2022/10/15 09:16:26;;;;;;;;;;;13.60;99.90;;;;;;5053761;28;20329;-75
2022/10/15 09:18:53;;;;;;;;;;;13.70;99.90;;;;;;5087517;28;19924;-75
2022/10/15 09:21:23;;;;;;;;;;;13.60;99.90;;;;;;5087887;28;19984;-75
2022/10/15 09:23:48;;;;;;;;;;;13.70;99.90;;;;;;5036264;28;19932;-75
2022/10/15 09:26:27;;;;;;;;;;;13.60;99.90;;;;;;5053019;28;19935;-75
2022/10/15 09:29:04;;;;;;;;;;;13.60;99.90;;;;;;5087066;28;19970;-75
2022/10/15 09:31:35;;;;;;;;;;;13.60;99.90;;;;;;5087162;28;19925;-75
2022/10/15 09:34:04;;;;;;;;;;;13.60;99.90;;;;;;5070057;28;19925;-75
2022/10/15 09:36:42;;;;;;;;;;;13.60;99.90;;;;;;5053632;28;20019;-75
2022/10/15 09:39:07;;;;;;;;;;;13.60;99.90;;;;;;5086515;28;19971;-75
2022/10/15 09:42:00;;;;;;;;;;;13.60;99.90;;;;;;5053910;28;20404;-76
2022/10/15 09:44:31;;;;;;;;;;;13.70;99.90;;;;;;5053204;28;19925;-75
2022/10/15 09:46:56;;;;;;;;;;;13.80;99.90;;;;;;5036208;28;20289;-76
2022/10/15 09:49:23;;;;;;;;;;;13.80;99.90;;;;;;5070336;28;19925;-75
2022/10/15 09:51:56;;;;;;;;;;;13.80;99.90;;;;;;5036778;28;19925;-75
2022/10/15 09:54:25;;;;;;;;;;;13.90;99.90;;;;;;5086553;28;20023;-74
2022/10/15 09:56:52;;;;;;;;;;;13.90;99.90;;;;;;5086594;28;19925;-75
2022/10/15 09:59:19;;;;;;;;;;;13.80;99.90;;;;;;5086431;28;19979;-75
2022/10/15 10:02:15;;;;;;;;;;;13.80;99.90;;;;;;5086338;28;19925;-75
2022/10/15 10:04:40;;;;;;;;;;;13.90;99.90;;;;;;5054229;28;19924;-75
2022/10/15 10:07:06;;;;;;;;;;;13.90;99.90;;;;;;5086507;28;20428;-75
2022/10/15 10:09:35;;;;;;;;;;;13.90;99.90;;;;;;5086343;28;19931;-74
2022/10/15 10:12:17;;;;;;;;;;;13.90;99.90;;;;;;5086439;28;19925;-75
2022/10/15 10:14:45;;;;;;;;;;;13.80;99.90;;;;;;5036755;28;20387;-76
2022/10/15 10:17:18;;;;;;;;;;;13.70;99.90;;;;;;5035676;28;19936;-75
2022/10/15 10:19:59;;;;;;;;;;;13.60;99.90;;;;;;5086587;28;19925;-75
2022/10/15 10:22:25;;;;;;;;;;;13.60;99.90;;;;;;5086569;28;19924;-75
2022/10/15 10:24:51;;;;;;;;;;;13.70;99.90;;;;;;5068304;28;19925;-78
2022/10/15 10:27:19;;;;;;;;;;;13.60;99.90;;;;;;5069455;28;19925;-75
2022/10/15 10:29:51;;;;;;;;;;;13.70;99.90;;;;;;5052892;28;19932;-75
2022/10/15 10:32:19;;;;;;;;;;;13.80;99.90;;;;;;5035838;28;20288;-76
2022/10/15 10:34:45;;;;;;;;;;;13.90;99.90;;;;;;5052511;28;20284;-75
2022/10/15 10:37:11;;;;;;;;;;;14.00;99.90;;;;;;5053550;28;19929;-75
2022/10/15 10:39:37;;;;;;;;;;;14.00;99.90;;;;;;5052205;28;20254;-75
2022/10/15 10:42:04;;;;;;;;;;;14.00;99.90;;;;;;5052349;28;19935;-75
2022/10/15 10:44:32;;;;;;;;;;;14.00;99.90;;;;;;5085470;28;19932;-75
2022/10/15 10:47:07;;;;;;;;;;;14.00;99.90;;;;;;5051516;28;19933;-76
2022/10/15 10:49:34;;;;;;;;;;;14.00;99.90;;;;;;5052544;28;20276;-74
2022/10/15 10:52:00;;;;;;;;;;;14.00;99.90;;;;;;5085840;28;19931;-75
2022/10/15 10:54:27;;;;;;;;;;;14.00;99.90;;;;;;5051756;28;19925;-75
2022/10/15 10:56:53;;;;;;;;;;;14.00;99.90;;;;;;5085492;28;19928;-78
2022/10/15 10:59:25;;;;;;;;;;;14.00;99.90;;;;;;5052287;28;20379;-75
2022/10/15 11:01:51;;;;;;;;;;;14.00;99.90;;;;;;5085370;28;20284;-75
2022/10/15 11:04:35;;;;;;;;;;;14.10;99.90;;;;;;5018493;28;19925;-75
2022/10/15 11:07:04;;;;;;;;;;;14.10;99.90;;;;;;5084937;28;20446;-74
2022/10/15 11:09:39;;;;;;;;;;;14.10;99.90;;;;;;5085459;28;20327;-74
2022/10/15 11:12:23;;;;;;;;;;;14.20;99.90;;;;;;5051369;28;19925;-75
2022/10/15 11:15:04;;;;;;;;;;;14.30;99.90;;;;;;5051346;28;19925;-75
2022/10/15 11:17:29;;;;;;;;;;;14.40;99.90;;;;;;5051812;28;19925;-75
2022/10/15 11:20:02;;;;;;;;;;;14.50;99.90;;;;;;5051567;28;19931;-76
2022/10/15 11:22:40;;;;;;;;;;;14.60;99.90;;;;;;5084859;28;20030;-75
2022/10/15 11:25:30;;;;;;;;;;;14.70;99.90;;;;;;5051098;28;19931;-75
2022/10/15 11:28:14;;;;;;;;;;;14.80;99.90;;;;;;5051382;28;19925;-75
2022/10/15 11:30:46;;;;;;;;;;;15.10;99.90;;;;;;5051308;28;19976;-75
2022/10/15 11:33:30;;;;;;;;;;;15.30;99.90;;;;;;5051362;28;19931;-75
2022/10/15 11:36:08;;;;;;;;;;;15.40;99.90;;;;;;5050977;28;20331;-77
2022/10/15 11:38:44;;;;;;;;;;;15.40;99.90;;;;;;5051064;28;19929;-75
2022/10/15 11:41:17;;;;;;;;;;;15.40;99.90;;;;;;5084705;28;20368;-75
2022/10/15 11:43:42;;;;;;;;;;;15.50;99.90;;;;;;5084695;28;20686;-76
2022/10/15 11:46:08;;;;;;;;;;;15.50;99.90;;;;;;5050727;28;19939;-76
2022/10/15 11:48:33;;;;;;;;;;;15.50;99.90;;;;;;5051352;28;19979;-76
2022/10/15 11:51:09;;;;;;;;;;;15.50;99.90;;;;;;5067892;28;19925;-76
2022/10/15 11:53:49;;;;;;;;;;;15.50;99.90;;;;;;5050944;28;19975;-76
2022/10/15 11:56:17;;;;;;;;;;;15.50;99.90;;;;;;5051217;28;20019;-75
2022/10/15 11:58:54;;;;;;;;;;;15.70;99.90;;;;;;5051254;28;19929;-76
2022/10/15 12:01:23;;;;;;;;;;;15.70;99.90;;;;;;5084590;28;19979;-76
2022/10/15 12:03:51;;;;;;;;;;;15.60;99.90;;;;;;5050628;28;19986;-76
2022/10/15 12:06:18;;;;;;;;;;;15.70;99.90;;;;;;5084488;28;20752;-77
2022/10/15 12:08:45;;;;;;;;;;;15.70;99.90;;;;;;5034383;28;19932;-76
2022/10/15 12:11:38;;;;;;;;;;;15.90;99.90;;;;;;5034525;28;20016;-76
2022/10/15 12:14:15;;;;;;;;;;;15.80;99.90;;;;;;5083966;28;19982;-76
2022/10/15 12:16:55;;;;;;;;;;;16.00;99.90;;;;;;5084867;28;20287;-75
2022/10/15 12:19:22;;;;;;;;;;;16.10;99.90;;;;;;5050505;28;20388;-75
2022/10/15 12:21:53;;;;;;;;;;;16.20;99.90;;;;;;5084253;28;19982;-76
2022/10/15 12:24:43;;;;;;;;;;;16.30;99.90;;;;;;5053447;28;20085;-76
2022/10/15 12:27:17;;;;;;;;;;;16.50;99.90;;;;;;5035078;28;19956;-76
2022/10/15 12:30:06;;;;;;;;;;;16.80;99.90;;;;;;5034545;28;19936;-76
2022/10/15 12:32:36;;;;;;;;;;;16.70;99.90;;;;;;5022843;28;20369;-76
2022/10/15 12:35:05;;;;;;;;;;;16.50;99.90;;;;;;5034637;28;19932;-75
2022/10/15 12:37:34;;;;;;;;;;;16.40;99.90;;;;;;5034669;28;19925;-75
2022/10/15 12:40:02;;;;;;;;;;;16.30;99.90;;;;;;5034575;28;19968;-78
2022/10/15 12:42:33;;;;;;;;;;;16.30;99.90;;;;;;5034923;28;20574;-75
2022/10/15 12:45:01;;;;;;;;;;;16.20;99.90;;;;;;5034296;28;19932;-75
2022/10/15 12:47:47;;;;;;;;;;;16.10;99.90;;;;;;5068006;28;19948;-77
2022/10/15 12:50:23;;;;;;;;;;;16.10;99.90;;;;;;5034306;28;20019;-76
2022/10/15 12:53:24;;;;;;;;;;;16.00;99.90;;;;;;5034072;28;20015;-76
2022/10/15 12:56:16;;;;;;;;;;;16.00;99.90;;;;;;5034685;28;19968;-75
2022/10/15 12:58:46;;;;;;;;;;;16.00;99.90;;;;;;5030126;28;19948;-76
2022/10/15 13:01:11;;;;;;;;;;;15.90;99.90;;;;;;5051086;28;19929;-75
2022/10/15 13:03:43;;;;;;;;;;;15.90;99.90;;;;;;5034109;28;19932;-76
2022/10/15 13:06:21;;;;;;;;;;;15.80;99.90;;;;;;5066872;28;19966;-76
2022/10/15 13:08:48;;;;;;;;;;;15.80;99.90;;;;;;5034313;28;19925;-76
2022/10/15 13:11:19;;;;;;;;;;;15.70;99.90;;;;;;5050844;28;20020;-76
2022/10/15 13:13:45;;;;;;;;;;;15.60;99.90;;;;;;5033779;28;19975;-76
2022/10/15 13:16:12;;;;;;;;;;;15.60;99.90;;;;;;5067335;28;19925;-76
2022/10/15 13:18:50;;;;;;;;;;;15.60;99.90;;;;;;5050793;28;19925;-76
2022/10/15 13:21:15;;;;;;;;;;;15.50;99.90;;;;;;5033649;28;19981;-76
2022/10/15 13:23:46;;;;;;;;;;;15.50;99.90;;;;;;5050356;28;19980;-76
2022/10/15 13:26:15;;;;;;;;;;;15.40;99.90;;;;;;5047972;28;19925;-76
2022/10/15 13:28:41;;;;;;;;;;;15.40;99.90;;;;;;5036820;28;19931;-75
2022/10/15 13:31:13;;;;;;;;;;;15.40;99.90;;;;;;5087358;28;19972;-76
2022/10/15 13:33:41;;;;;;;;;;;15.40;99.90;;;;;;5087315;28;19933;-76
2022/10/15 13:36:08;;;;;;;;;;;15.40;99.90;;;;;;5085587;28;19932;-76
2022/10/15 13:38:34;;;;;;;;;;;15.40;99.90;;;;;;5070666;28;20377;-76
2022/10/15 13:41:00;;;;;;;;;;;15.40;99.90;;;;;;5036723;28;19925;-76
2022/10/15 13:43:26;;;;;;;;;;;15.40;99.90;;;;;;5069336;28;19936;-76
2022/10/15 13:45:56;;;;;;;;;;;15.40;99.90;;;;;;5053686;28;19925;-76
2022/10/15 13:48:26;;;;;;;;;;;15.40;99.90;;;;;;5087007;28;19932;-76
2022/10/15 13:50:56;;;;;;;;;;;15.30;99.90;;;;;;5036482;28;19947;-75
2022/10/15 13:53:33;;;;;;;;;;;15.30;99.90;;;;;;5036505;28;19932;-76
2022/10/15 13:55:59;;;;;;;;;;;15.40;99.90;;;;;;5036878;28;19937;-76
2022/10/15 13:58:28;;;;;;;;;;;15.30;99.90;;;;;;5036254;28;19929;-76
2022/10/15 14:01:16;;;;;;;;;;;15.40;99.90;;;;;;5069899;28;19928;-75
2022/10/15 14:03:51;;;;;;;;;;;15.40;99.90;;;;;;5036381;28;19947;-76
2022/10/15 14:06:26;;;;;;;;;;;15.50;99.90;;;;;;5052569;28;19991;-75
2022/10/15 14:08:53;;;;;;;;;;;15.50;99.90;;;;;;5086966;28;20105;-76
2022/10/15 14:11:19;;;;;;;;;;;15.50;99.90;;;;;;5069535;28;19976;-76
2022/10/15 14:13:46;;;;;;;;;;;15.50;99.90;;;;;;5068906;28;20078;-76
2022/10/15 14:16:31;;;;;;;;;;;15.50;99.90;;;;;;5086433;28;19925;-76
2022/10/15 14:19:07;;;;;;;;;;;15.40;99.90;;;;;;5036570;28;20049;-76
2022/10/15 14:21:33;;;;;;;;;;;15.40;99.90;;;;;;5085636;28;19970;-76
2022/10/15 14:24:04;;;;;;;;;;;15.30;99.90;;;;;;5085980;28;19924;-76
2022/10/15 14:26:30;;;;;;;;;;;15.40;99.90;;;;;;5085577;28;20022;-76